Time;durP1;ratioP1;P1;durP2;ratioP2;P2;SDS_P1;SDS_P2;PMS_P1;PMS_P2;Temp;Humidity;BMP_temperature;BMP_pressure;BME280_temperature;BME280_humidity;BME280_pressure;Samples;Min_cycle;Max_cycle;Signal;HPM_P1;HPM_P2
2022/12/25 00:01:33;;;;;;;2.67;2.47;;;;;;;15.91;47.86;96959.09;4890758;29;20668;-92
2022/12/25 00:04:02;;;;;;;2.37;2.13;;;;;;;15.65;48.04;96924.19;4893653;29;20731;-92
2022/12/25 00:06:32;;;;;;;2.23;2.03;;;;;;;19.08;47.77;97507.34;4876058;29;20244;-92
2022/12/25 00:09:01;;;;;;;2.97;2.50;;;;;;;20.18;47.92;97697.75;4909386;29;20214;-92
2022/12/25 00:11:30;;;;;;;2.60;2.40;;;;;;;16.78;47.91;97134.38;4892892;29;20245;-92
2022/12/25 00:13:57;;;;;;;2.30;2.10;;;;;;;19.99;47.93;97687.66;4893025;29;20692;-92
2022/12/25 00:16:25;;;;;;;2.50;2.30;;;;;;;15.73;47.25;96963.38;4894755;29;20228;-92
2022/12/25 00:18:52;;;;;;;3.10;2.40;;;;;;;14.29;48.13;96676.16;4897437;29;20235;-92
2022/12/25 00:21:26;;;;;;;2.43;2.23;;;;;;;16.49;47.53;97121.28;4897792;29;20213;-92
2022/12/25 00:24:00;;;;;;;2.40;2.20;;;;;;;16.11;47.92;97008.06;4880068;29;20220;-92
2022/12/25 00:26:46;;;;;;;2.40;2.20;;;;;;;16.14;47.48;97076.66;4878981;29;20340;-92
2022/12/25 00:29:14;;;;;;;2.50;2.30;;;;;;;18.26;47.96;97481.91;4872890;29;20261;-92
2022/12/25 00:31:45;;;;;;;2.20;2.00;;;;;;;15.88;47.08;96983.41;4899643;29;20220;-91
2022/12/25 00:34:12;;;;;;;2.30;2.10;;;;;;;15.09;47.62;96839.84;4884433;29;20194;-92
2022/12/25 00:36:38;;;;;;;2.27;2.07;;;;;;;15.03;47.56;96891.84;4899668;29;20221;-92
2022/12/25 00:39:08;;;;;;;2.50;2.20;;;;;;;19.15;47.85;97615.44;4905231;29;20201;-92
2022/12/25 00:44:25;;;;;;;2.73;2.53;;;;;;;16.57;48.13;97103.03;4878638;29;20233;-92
2022/12/25 00:46:56;;;;;;;2.43;1.90;;;;;;;13.15;47.91;96495.13;4901351;29;20274;-92
2022/12/25 00:49:23;;;;;;;2.30;2.10;;;;;;;17.39;48.01;97217.31;5028527;23;20240;-90
2022/12/25 00:51:50;;;;;;;2.70;2.50;;;;;;;15.50;47.71;97003.69;4927764;29;20221;-89
2022/12/25 00:54:19;;;;;;;2.27;2.07;;;;;;;18.87;47.70;97468.34;4948651;29;20198;-89
2022/12/25 00:56:46;;;;;;;2.40;2.20;;;;;;;14.03;47.65;96700.22;4948201;29;20633;-90
2022/12/25 00:59:18;;;;;;;2.07;1.93;;;;;;;17.26;47.69;97243.00;4926651;29;20308;-89
2022/12/25 01:01:44;;;;;;;2.40;2.20;;;;;;;12.35;47.42;96524.00;4932665;29;20229;-89
2022/12/25 01:04:13;;;;;;;2.37;2.17;;;;;;;14.21;47.57;96677.47;4891249;29;20232;-89
2022/12/25 01:06:40;;;;;;;2.33;2.13;;;;;;;17.58;47.46;97296.03;4912502;29;20277;-89
2022/12/25 01:11:54;;;;;;;2.10;1.90;;;;;;;18.97;47.76;97506.06;4895629;29;20214;-90
2022/12/25 01:14:26;;;;;;;2.10;2.00;;;;;;;11.53;47.37;96218.78;4896743;29;20205;-89
2022/12/25 01:16:53;;;;;;;2.50;2.30;;;;;;;16.05;47.49;97111.72;4915431;29;20210;-89
2022/12/25 01:19:20;;;;;;;2.40;2.20;;;;;;;9.14;47.32;95930.69;4895044;29;20226;-90
2022/12/25 01:21:49;;;;;;;2.20;2.00;;;;;;;10.96;47.43;96170.78;4897344;29;20257;-90
2022/12/25 01:24:16;;;;;;;2.23;2.03;;;;;;;17.63;47.59;97294.56;4908330;29;20260;-89
2022/12/25 01:26:42;;;;;;;2.30;2.10;;;;;;;15.64;47.61;96993.38;4899635;29;20213;-90
2022/12/25 01:29:09;;;;;;;1.97;1.77;;;;;;;11.21;47.80;96321.97;4897689;29;20278;-90
2022/12/25 01:31:42;;;;;;;2.17;1.97;;;;;;;10.63;47.59;96174.16;4912864;29;20197;-89
2022/12/25 01:34:08;;;;;;;2.23;2.03;;;;;;;13.72;47.82;96625.53;4898049;29;20193;-89
2022/12/25 01:36:37;;;;;;;2.30;2.10;;;;;;;17.81;47.67;97353.78;4915746;29;20284;-89
2022/12/25 01:39:04;;;;;;;1.90;1.80;;;;;;;20.15;47.74;97733.38;4914391;29;20749;-89
2022/12/25 01:41:33;;;;;;;2.00;1.90;;;;;;;17.70;47.85;97402.41;4907651;29;20210;-89
2022/12/25 01:44:27;;;;;;;2.40;2.20;;;;;;;19.50;47.80;97610.06;4916292;29;20212;-90
2022/12/25 01:46:54;;;;;;;2.53;2.27;;;;;;;19.58;47.93;97624.88;4915524;29;20289;-89
2022/12/25 01:49:23;;;;;;;2.37;1.80;;;;;;;18.37;47.79;97414.56;4915245;29;20237;-90
2022/12/25 01:51:58;;;;;;;2.23;2.03;;;;;;;18.03;47.55;97389.41;4927849;29;20248;-89
2022/12/25 01:54:27;;;;;;;2.43;2.10;;;;;;;18.40;47.72;97412.16;4887285;29;20217;-90
2022/12/25 01:56:55;;;;;;;2.33;2.13;;;;;;;10.97;47.62;96177.50;4897442;29;20663;-90
2022/12/25 01:59:24;;;;;;;2.40;2.20;;;;;;;11.96;47.85;96386.13;4916041;29;20236;-89
2022/12/25 02:01:54;;;;;;;2.10;1.90;;;;;;;9.63;47.47;95894.75;4898821;29;20305;-89
2022/12/25 02:04:40;;;;;;;2.33;2.03;;;;;;;9.44;47.06;95987.38;4894866;29;20225;-89
2022/12/25 02:07:10;;;;;;;2.40;2.20;;;;;;;10.65;47.52;96062.91;4900512;29;20217;-90
2022/12/25 02:09:39;;;;;;;2.23;2.03;;;;;;;18.14;47.75;97397.47;4911202;29;20967;-89
2022/12/25 02:12:09;;;;;;;2.07;1.80;;;;;;;15.77;47.79;97009.94;4916279;29;20217;-90
2022/12/25 02:14:41;;;;;;;1.90;1.80;;;;;;;13.05;47.55;96517.31;4894319;29;20586;-90
2022/12/25 02:17:38;;;;;;;2.13;1.97;;;;;;;20.15;47.85;97712.06;4927633;29;20278;-89
2022/12/25 02:20:20;;;;;;;1.93;1.80;;;;;;;17.90;47.74;97327.84;4917310;29;20292;-90
2022/12/25 02:23:12;;;;;;;2.10;1.90;;;;;;;20.14;47.60;97718.00;4915336;29;20215;-89
2022/12/25 02:26:12;;;;;;;1.80;1.70;;;;;;;20.14;47.67;97718.88;4916261;29;20229;-89
2022/12/25 02:28:54;;;;;;;1.90;1.80;;;;;;;20.13;47.81;97729.03;4931598;29;20650;-89
2022/12/25 02:31:42;;;;;;;2.47;1.97;;;;;;;13.63;47.62;96660.47;4914352;29;20622;-88
2022/12/25 02:34:16;;;;;;;1.87;1.77;;;;;;;20.12;47.88;97724.69;4912890;29;20220;-90
2022/12/25 02:36:57;;;;;;;2.03;1.80;;;;;;;11.70;47.53;96363.91;4931641;29;20217;-90
2022/12/25 02:39:56;;;;;;;1.93;1.83;;;;;;;18.21;47.76;97392.69;4915471;29;20229;-89
2022/12/25 03:07:45;;;;;;;1.70;1.60;;;;;;;17.53;47.64;97317.00;4909892;29;20281;-90
2022/12/25 03:13:08;;;;;;;1.90;1.73;;;;;;;17.09;47.72;97175.44;4928150;29;20210;-89
2022/12/25 03:18:33;;;;;;;2.33;2.13;;;;;;;18.85;47.74;97489.44;4911684;29;20206;-90
2022/12/25 03:26:53;;;;;;;2.10;1.90;;;;;;;18.98;47.61;97512.03;4909556;29;20485;-90
2022/12/25 03:32:25;;;;;;;2.13;1.93;;;;;;;19.12;47.68;97516.84;4898338;29;20745;-89
2022/12/25 03:35:22;;;;;;;1.93;1.83;;;;;;;20.12;47.60;97686.41;4905895;29;20213;-91
2022/12/25 04:37:57;;;;;;;1.80;1.70;;;;;;;14.32;47.45;96742.84;4914599;29;20201;-89
2022/12/25 04:40:23;;;;;;;1.57;1.47;;;;;;;16.08;47.45;96972.47;4895011;29;20294;-89
2022/12/25 04:42:54;;;;;;;1.77;1.67;;;;;;;17.93;47.70;97284.75;4899112;29;20201;-89
2022/12/25 04:45:23;;;;;;;1.87;1.70;;;;;;;14.58;47.70;96724.66;4912183;29;20352;-89
2022/12/25 04:47:49;;;;;;;2.43;1.90;;;;;;;14.51;47.90;96780.78;4911972;29;20265;-90
2022/12/25 04:50:16;;;;;;;1.77;1.60;;;;;;;14.35;47.63;96798.59;4894488;29;20265;-89
2022/12/25 04:52:43;;;;;;;1.77;1.67;;;;;;;15.06;47.38;96783.16;4902411;29;20613;-91
2022/12/25 04:55:10;;;;;;;1.83;1.73;;;;;;;17.17;47.58;97196.06;4929027;29;20666;-90
2022/12/25 04:57:37;;;;;;;1.70;1.60;;;;;;;16.00;47.58;96945.94;4910231;29;20229;-89
2022/12/25 05:00:04;;;;;;;1.70;1.60;;;;;;;17.40;47.58;97180.06;4913979;29;20226;-89
2022/12/25 05:02:31;;;;;;;1.67;1.57;;;;;;;17.58;47.69;97211.31;4917091;29;20503;-89
2022/12/25 05:05:00;;;;;;;2.17;2.00;;;;;;;12.15;47.19;96267.00;4913450;29;20205;-89
2022/12/25 05:07:27;;;;;;;1.90;1.80;;;;;;;9.04;47.39;95813.25;4914543;29;20209;-89
2022/12/25 05:09:54;;;;;;;1.53;1.43;;;;;;;18.88;47.70;97438.63;4929101;29;20285;-90
2022/12/25 05:12:23;;;;;;;1.90;1.80;;;;;;;14.05;47.15;96650.66;4916826;29;20225;-89
2022/12/25 05:14:59;;;;;;;2.03;1.90;;;;;;;16.03;47.44;96943.53;4931448;29;20201;-89
2022/12/25 05:17:25;;;;;;;1.70;1.60;;;;;;;13.74;47.75;96555.81;4918046;29;20631;-88
2022/12/25 05:19:57;;;;;;;1.70;1.60;;;;;;;18.23;47.43;97315.59;4916383;29;20273;-89
2022/12/25 05:22:32;;;;;;;1.90;1.80;;;;;;;11.60;47.29;96209.88;4916044;29;20209;-90
2022/12/25 05:25:04;;;;;;;1.90;1.80;;;;;;;12.17;47.59;96416.50;4914413;29;20278;-89
2022/12/25 05:27:31;;;;;;;1.70;1.60;;;;;;;16.82;48.04;97202.22;4902725;29;20297;-90
2022/12/25 05:29:59;;;;;;;1.70;1.60;;;;;;;9.63;47.26;95916.44;4914704;29;20657;-89
2022/12/25 05:32:26;;;;;;;1.90;1.80;;;;;;;15.47;47.22;96974.03;4895054;29;20677;-89
2022/12/25 05:34:53;;;;;;;1.50;1.40;;;;;;;16.54;46.95;97053.84;4915168;29;20213;-89
2022/12/25 05:37:19;;;;;;;1.67;1.57;;;;;;;18.98;47.46;97453.47;4900905;29;20205;-89
2022/12/25 05:39:56;;;;;;;2.00;1.90;;;;;;;14.18;47.58;96609.97;4898354;29;20226;-90
2022/12/25 05:42:23;;;;;;;1.80;1.70;;;;;;;14.20;47.61;96648.78;4914395;29;20220;-90
2022/12/25 05:44:51;;;;;;;1.83;1.73;;;;;;;19.55;47.60;97614.56;4893779;29;20209;-91
2022/12/25 05:47:25;;;;;;;1.63;1.53;;;;;;;14.26;47.18;96664.25;4912601;29;20214;-90
2022/12/25 05:49:52;;;;;;;1.83;1.70;;;;;;;18.15;47.60;97488.25;4914236;29;20230;-91
2022/12/25 05:52:21;;;;;;;1.70;1.60;;;;;;;19.82;47.61;97650.44;4916535;29;20220;-89
2022/12/25 05:54:48;;;;;;;1.67;1.50;;;;;;;17.09;47.53;97119.59;4916318;29;20194;-90
2022/12/25 05:57:15;;;;;;;1.70;1.60;;;;;;;20.13;47.54;97647.38;4909235;29;20206;-89
2022/12/25 05:59:41;;;;;;;1.70;1.60;;;;;;;15.68;47.46;96876.19;4923304;29;20253;-89
2022/12/25 06:02:08;;;;;;;1.87;1.77;;;;;;;15.54;47.40;96866.31;4916099;29;20217;-88
2022/12/25 06:04:41;;;;;;;1.73;1.63;;;;;;;17.25;47.57;97142.25;4899057;29;20209;-89
2022/12/25 06:07:07;;;;;;;1.60;1.50;;;;;;;17.31;47.57;97150.09;4916773;29;20230;-89
2022/12/25 06:09:37;;;;;;;1.70;1.60;;;;;;;11.39;47.29;96173.66;4915868;29;20229;-89
2022/12/25 06:12:04;;;;;;;1.60;1.50;;;;;;;19.80;47.47;97581.53;4932075;29;20217;-89
2022/12/25 06:14:30;;;;;;;1.70;1.60;;;;;;;12.87;47.36;96540.84;4916672;29;20210;-89
2022/12/25 06:16:57;;;;;;;1.80;1.70;;;;;;;16.89;47.58;97122.13;4916629;29;20198;-90
2022/12/25 06:19:26;;;;;;;1.60;1.50;;;;;;;17.90;47.48;97244.81;4908087;29;20303;-89
2022/12/25 06:21:55;;;;;;;1.73;1.63;;;;;;;14.00;47.29;96566.22;4901808;29;20453;-89
2022/12/25 06:24:22;;;;;;;1.50;1.40;;;;;;;14.20;48.31;96716.13;4878678;29;20812;-90
2022/12/25 06:26:48;;;;;;;1.80;1.70;;;;;;;13.39;47.15;96449.91;4898824;29;20226;-90
2022/12/25 06:29:15;;;;;;;1.63;1.53;;;;;;;17.37;47.23;97216.38;4917026;29;20233;-89
2022/12/25 06:31:42;;;;;;;1.70;1.60;;;;;;;13.00;47.15;96433.91;4912778;29;20577;-90
2022/12/25 06:34:15;;;;;;;2.10;1.90;;;;;;;12.74;47.22;96547.75;4915150;29;20220;-90
2022/12/25 06:36:42;;;;;;;1.70;1.60;;;;;;;16.98;47.46;97081.88;4910509;29;20206;-89
2022/12/25 06:39:09;;;;;;;1.77;1.63;;;;;;;14.47;47.48;96692.09;4915615;29;20281;-88
2022/12/25 06:41:35;;;;;;;1.77;1.67;;;;;;;13.65;47.39;96510.81;4930555;29;20239;-89
2022/12/25 06:44:02;;;;;;;1.63;1.53;;;;;;;17.61;47.35;97189.44;4918669;29;20202;-90
2022/12/25 06:46:29;;;;;;;1.60;1.50;;;;;;;17.03;47.45;97082.94;4912702;29;20221;-89
2022/12/25 06:51:38;;;;;;;2.00;1.77;;;;;;;19.65;47.21;97544.38;4154061;27;20204;-93
2022/12/25 06:54:05;;;;;;;1.60;1.50;;;;;;;19.40;47.50;97498.41;4926577;28;20177;-89
2022/12/25 06:56:32;;;;;;;1.87;1.73;;;;;;;18.84;47.15;97406.22;4942762;28;20205;-94
2022/12/25 06:59:00;;;;;;;1.77;1.67;;;;;;;19.31;47.38;97491.31;4939787;28;20190;-94
2022/12/25 07:01:34;;;;;;;2.00;1.83;;;;;;;19.44;47.38;97510.44;4940283;28;20190;-93
2022/12/25 07:04:06;;;;;;;1.67;1.57;;;;;;;18.99;47.53;97440.78;4932994;28;20277;-93
2022/12/25 07:06:33;;;;;;;1.70;1.60;;;;;;;19.70;47.53;97559.06;4934704;28;20227;-93
2022/12/25 07:08:59;;;;;;;1.70;1.60;;;;;;;19.75;47.07;97566.88;4936985;28;20253;-91
2022/12/25 07:11:26;;;;;;;1.73;1.63;;;;;;;19.53;47.44;97532.06;4943234;29;20205;-91
2022/12/25 07:13:53;;;;;;;1.90;1.70;;;;;;;19.73;47.44;97582.13;4942372;29;20209;-92
2022/12/25 07:16:19;;;;;;;1.70;1.60;;;;;;;19.23;47.70;97474.81;4928789;29;20201;-90
2022/12/25 07:18:46;;;;;;;1.93;1.80;;;;;;;20.02;47.35;97619.75;4910299;29;20216;-92
2022/12/25 07:21:17;;;;;;;1.77;1.67;;;;;;;19.52;47.53;97529.44;4926127;29;20221;-93
2022/12/25 07:23:44;;;;;;;1.67;1.57;;;;;;;18.55;47.17;97379.66;4929786;29;20189;-92
2022/12/25 07:26:11;;;;;;;1.90;1.80;;;;;;;18.83;47.38;97402.81;4926192;28;20227;-91
2022/12/25 07:28:38;;;;;;;1.90;1.70;;;;;;;19.57;47.46;97538.16;4941883;28;20244;-92
2022/12/25 07:31:17;;;;;;;1.50;1.40;;;;;;;19.93;47.49;97601.53;4928410;28;20217;-92
2022/12/25 07:33:44;;;;;;;1.67;1.57;;;;;;;19.42;47.37;97510.38;4909667;29;20190;-91
2022/12/25 07:36:11;;;;;;;1.77;1.67;;;;;;;19.31;47.35;97493.84;4928955;29;20251;-89
2022/12/25 07:38:40;;;;;;;2.23;1.90;;;;;;;19.61;47.34;97545.97;4926947;28;20286;-94
2022/12/25 07:41:08;;;;;;;1.70;1.60;;;;;;;19.18;47.42;97476.31;4927682;29;20261;-90
2022/12/25 07:43:35;;;;;;;1.50;1.40;;;;;;;18.99;47.74;97450.09;4925117;29;20235;-93
2022/12/25 07:46:01;;;;;;;1.80;1.70;;;;;;;19.65;47.51;97558.00;4929372;28;20220;-92
2022/12/25 07:48:28;;;;;;;1.70;1.60;;;;;;;19.44;47.39;97528.28;4943766;28;20192;-91
2022/12/25 07:50:59;;;;;;;1.60;1.50;;;;;;;19.26;47.31;97496.97;4929660;28;20276;-90
2022/12/25 07:53:26;;;;;;;1.50;1.40;;;;;;;19.38;47.40;97510.22;4942641;28;20190;-92
2022/12/25 07:56:06;;;;;;;1.50;1.40;;;;;;;19.89;47.41;97598.81;4942719;29;21054;-92
2022/12/25 07:58:33;;;;;;;1.70;1.60;;;;;;;19.52;47.35;97537.09;4932650;28;20189;-94
2022/12/25 08:01:04;;;;;;;1.43;1.33;;;;;;;19.62;47.38;97546.81;4956267;28;20201;-92
2022/12/25 08:03:32;;;;;;;1.70;1.60;;;;;;;19.62;47.73;97542.59;4939441;29;20212;-93
2022/12/25 08:06:02;;;;;;;2.13;2.00;;;;;;;19.46;47.34;97517.34;4943113;28;20232;-91
2022/12/25 08:08:29;;;;;;;5.57;2.37;;;;;;;19.12;47.00;97476.09;4922319;28;20189;-93
2022/12/25 08:10:56;;;;;;;3.00;2.47;;;;;;;18.18;46.71;97315.44;4944438;28;20219;-94
2022/12/25 08:13:23;;;;;;;3.13;2.83;;;;;;;18.54;46.55;97394.88;4942029;28;20221;-93
2022/12/25 08:15:49;;;;;;;4.30;3.03;;;;;;;19.73;46.12;97578.69;4921875;28;20213;-94
2022/12/25 08:18:16;;;;;;;3.97;3.20;;;;;;;19.64;44.21;97565.59;4932199;28;20189;-92
2022/12/25 08:20:42;;;;;;;5.67;3.90;;;;;;;18.51;43.79;97366.75;4966833;23;20224;-94
2022/12/25 08:23:09;;;;;;;4.47;3.80;;;;;;;18.89;44.20;97435.28;4918245;28;20190;-92
2022/12/25 08:25:36;;;;;;;4.37;3.60;;;;;;;19.19;44.36;97507.78;4940089;28;20229;-92
2022/12/25 08:28:02;;;;;;;3.73;3.33;;;;;;;19.94;44.69;97641.56;4941112;28;20193;-92
2022/12/25 08:30:29;;;;;;;4.20;3.53;;;;;;;18.99;44.72;97473.03;4939501;28;20237;-93
2022/12/25 08:32:55;;;;;;;4.27;3.60;;;;;;;19.25;45.18;97533.47;4914916;28;20212;-91
2022/12/25 08:35:22;;;;;;;4.33;3.40;;;;;;;18.43;45.44;97384.28;4917873;29;20205;-92
2022/12/25 08:37:49;;;;;;;3.57;3.27;;;;;;;19.03;45.29;97497.78;4957567;28;20205;-91
2022/12/25 08:40:15;;;;;;;3.63;3.33;;;;;;;19.06;45.45;97490.25;4960083;28;20205;-91
2022/12/25 08:42:42;;;;;;;3.50;3.20;;;;;;;18.51;45.62;97399.84;4955835;28;20201;-92
2022/12/25 08:45:09;;;;;;;4.00;3.00;;;;;;;18.69;45.61;97443.81;4957494;28;20181;-90
2022/12/25 08:47:36;;;;;;;4.03;3.13;;;;;;;19.86;45.81;97620.00;4942491;28;20288;-91
2022/12/25 08:50:03;;;;;;;3.50;2.93;;;;;;;19.37;46.20;97528.88;4941172;28;20250;-93
2022/12/25 08:52:30;;;;;;;3.50;3.13;;;;;;;19.78;45.87;97612.88;4942558;28;20216;-91
2022/12/25 08:54:56;;;;;;;2.93;2.70;;;;;;;19.42;46.10;97540.97;4946357;28;20220;-92
2022/12/25 08:57:23;;;;;;;3.70;2.70;;;;;;;19.35;46.06;97517.75;4953664;28;20206;-91
2022/12/25 08:59:50;;;;;;;4.10;2.70;;;;;;;19.87;46.27;97616.63;4942908;28;20212;-92
2022/12/25 09:02:16;;;;;;;2.77;2.53;;;;;;;18.88;46.16;97456.44;4958482;28;20185;-92
2022/12/25 09:04:45;;;;;;;3.00;2.70;;;;;;;19.05;46.18;97480.88;4961052;28;20217;-92
2022/12/25 09:07:11;;;;;;;4.90;3.13;;;;;;;18.60;46.42;97402.75;4953300;28;20209;-90
2022/12/25 09:09:38;;;;;;;4.40;2.60;;;;;;;18.91;46.53;97460.00;4938395;28;20272;-92
2022/12/25 09:12:05;;;;;;;3.67;2.80;;;;;;;19.43;46.63;97555.47;4945360;28;20185;-92
2022/12/25 09:14:31;;;;;;;3.10;2.40;;;;;;;19.31;46.61;97542.28;4958026;28;20205;-93
2022/12/25 09:16:58;;;;;;;2.87;2.53;;;;;;;18.64;46.63;97425.84;4941574;28;20225;-91
2022/12/25 09:19:25;;;;;;;2.30;2.10;;;;;;;19.04;46.53;97500.38;4956511;28;20240;-89
2022/12/25 09:21:51;;;;;;;2.03;1.93;;;;;;;19.35;46.72;97548.31;4939208;28;20268;-92
2022/12/25 09:24:19;;;;;;;6.07;2.33;;;;;;;19.09;46.62;97492.91;4942134;28;20244;-91
2022/12/25 09:26:46;;;;;;;2.53;2.13;;;;;;;18.63;46.52;97408.84;4959420;28;20220;-92
2022/12/25 09:29:13;;;;;;;2.50;2.30;;;;;;;18.84;46.75;97432.56;4935360;28;20253;-90
2022/12/25 09:31:40;;;;;;;2.40;2.20;;;;;;;19.61;46.88;97558.72;4914709;29;20228;-90
2022/12/25 09:34:07;;;;;;;4.73;1.97;;;;;;;19.54;46.74;97546.53;4944468;29;20268;-92
2022/12/25 09:36:39;;;;;;;3.33;2.13;;;;;;;20.02;46.76;97643.53;4914793;29;20631;-91
2022/12/25 09:39:05;;;;;;;5.90;2.40;;;;;;;19.75;47.03;97593.22;4914848;29;20211;-88
2022/12/25 09:41:33;;;;;;;2.10;1.90;;;;;;;20.02;46.98;97640.97;4944970;29;20213;-92
2022/12/25 09:44:05;;;;;;;2.30;2.10;;;;;;;19.95;46.98;97625.44;4946663;29;20193;-92
2022/12/25 09:46:56;;;;;;;2.30;2.10;;;;;;;19.83;46.87;97601.16;4946097;29;20215;-92
2022/12/25 09:49:35;;;;;;;5.23;1.80;;;;;;;19.63;46.96;97577.47;4946154;29;20240;-91
2022/12/25 09:52:09;;;;;;;2.73;2.00;;;;;;;19.53;46.94;97552.44;4929582;28;20213;-89
2022/12/25 09:54:58;;;;;;;4.80;2.10;;;;;;;20.02;47.09;97644.41;4943891;29;20234;-90
2022/12/25 09:57:24;;;;;;;2.57;2.10;;;;;;;18.86;46.99;97432.63;4945001;29;20185;-92
2022/12/25 09:59:54;;;;;;;2.23;2.03;;;;;;;18.71;46.94;97407.44;4931548;28;20414;-91
2022/12/25 10:02:52;;;;;;;1.90;1.80;;;;;;;20.02;46.88;97646.94;4945528;28;20209;-89
2022/12/25 10:05:37;;;;;;;2.10;1.97;;;;;;;20.04;46.93;97639.34;4946755;29;20216;-91
2022/12/25 10:08:46;;;;;;;2.50;2.00;;;;;;;20.02;46.86;97635.03;4947487;29;20225;-91
2022/12/25 10:11:46;;;;;;;2.23;1.97;;;;;;;20.03;46.91;97628.28;4942154;29;20205;-90
2022/12/25 10:14:25;;;;;;;2.17;1.97;;;;;;;20.02;46.90;97617.19;4938473;29;20193;-92
2022/12/25 10:16:57;;;;;;;2.53;2.23;;;;;;;20.03;46.95;97602.75;4959655;28;20199;-90
2022/12/25 10:19:30;;;;;;;1.87;1.77;;;;;;;20.03;47.12;97605.31;4938490;28;20226;-91
2022/12/25 10:21:59;;;;;;;1.97;1.77;;;;;;;20.02;46.84;97596.78;4937309;28;20214;-92
2022/12/25 10:24:34;;;;;;;3.23;1.60;;;;;;;19.56;46.88;97513.44;4923077;28;20213;-90
2022/12/25 10:27:03;;;;;;;2.00;1.90;;;;;;;17.96;47.08;97223.84;4907092;29;20255;-89
2022/12/25 10:29:31;;;;;;;2.00;1.90;;;;;;;18.48;47.13;97311.56;4921432;29;20532;-91
2022/12/25 10:31:57;;;;;;;2.03;1.80;;;;;;;18.15;46.89;97251.72;4926488;29;20197;-88
2022/12/25 10:34:26;;;;;;;2.10;1.90;;;;;;;19.72;47.04;97511.50;4930701;28;20292;-89
2022/12/25 10:36:53;;;;;;;1.80;1.70;;;;;;;17.88;46.94;97199.81;4946802;28;20188;-89
2022/12/25 10:39:22;;;;;;;2.10;1.90;;;;;;;20.04;47.01;97575.59;4943027;28;20256;-90
2022/12/25 10:42:03;;;;;;;1.97;1.87;;;;;;;20.04;47.25;97560.28;4953800;28;20265;-90
2022/12/25 10:44:31;;;;;;;1.80;1.70;;;;;;;19.94;47.19;97557.41;4971829;28;20193;-91
2022/12/25 10:46:58;;;;;;;2.00;1.77;;;;;;;19.18;46.88;97409.22;4949645;28;20223;-91
2022/12/25 10:49:35;;;;;;;2.17;1.70;;;;;;;19.33;47.04;97414.91;4957068;28;20280;-90
2022/12/25 10:52:02;;;;;;;2.00;1.80;;;;;;;18.99;47.05;97355.88;4958812;28;20185;-91
2022/12/25 10:54:36;;;;;;;2.10;1.90;;;;;;;19.60;47.00;97467.72;4951998;28;20197;-91
2022/12/25 10:57:23;;;;;;;1.93;1.80;;;;;;;19.16;46.96;97378.56;4953630;28;20200;-91
2022/12/25 10:59:51;;;;;;;2.23;1.70;;;;;;;18.23;47.19;97226.59;4949244;28;20228;-90
2022/12/25 11:02:28;;;;;;;1.87;1.70;;;;;;;20.06;46.84;97541.66;4947503;28;21150;-89
2022/12/25 11:05:09;;;;;;;2.17;1.97;;;;;;;19.29;47.03;97398.66;4954056;28;20206;-91
2022/12/25 11:07:45;;;;;;;2.23;1.90;;;;;;;19.41;46.79;97414.38;4953091;28;20262;-90
2022/12/25 11:10:18;;;;;;;2.07;1.90;;;;;;;19.59;46.99;97437.09;4947334;28;20244;-90
2022/12/25 11:12:44;;;;;;;1.73;1.63;;;;;;;20.07;47.03;97525.50;4958470;28;20181;-91
2022/12/25 11:15:30;;;;;;;1.80;1.70;;;;;;;20.08;47.08;97516.19;4952042;28;20265;-91
2022/12/25 11:17:56;;;;;;;2.03;1.83;;;;;;;19.74;46.83;97463.13;4961106;28;20185;-90
2022/12/25 11:20:23;;;;;;;2.30;2.10;;;;;;;19.50;47.12;97439.31;4957488;28;20318;-89
2022/12/25 11:22:50;;;;;;;1.77;1.67;;;;;;;19.85;47.00;97482.22;4955859;28;20189;-91
2022/12/25 11:25:26;;;;;;;2.43;1.80;;;;;;;19.55;46.97;97455.66;4958103;28;20216;-92
2022/12/25 11:28:12;;;;;;;2.10;1.90;;;;;;;19.59;47.04;97424.34;4946128;28;20271;-92
2022/12/25 11:30:38;;;;;;;2.93;1.90;;;;;;;19.56;46.68;97426.78;4947592;28;20250;-90
2022/12/25 11:33:08;;;;;;;1.80;1.70;;;;;;;19.55;47.15;97425.94;4954940;28;20197;-91
2022/12/25 11:35:49;;;;;;;1.70;1.60;;;;;;;19.98;47.04;97488.63;4924827;28;20201;-90
2022/12/25 11:38:15;;;;;;;1.90;1.80;;;;;;;19.61;47.02;97423.59;4956748;28;20196;-90
2022/12/25 11:40:45;;;;;;;2.00;1.80;;;;;;;19.42;47.15;97385.50;4951671;28;20378;-90
2022/12/25 11:43:28;;;;;;;2.33;1.87;;;;;;;19.71;47.00;97433.28;4933196;28;20201;-91
2022/12/25 11:46:00;;;;;;;2.40;2.10;;;;;;;20.07;47.39;97491.50;4909730;28;20217;-93
2022/12/25 11:48:35;;;;;;;3.30;2.80;;;;;;;19.56;47.54;97397.06;4952127;28;20216;-90
2022/12/25 11:51:01;;;;;;;3.27;2.80;;;;;;;18.81;47.44;97269.50;4938664;28;20258;-91
2022/12/25 11:53:29;;;;;;;2.63;2.43;;;;;;;18.94;47.76;97314.09;4948068;28;20200;-91
2022/12/25 11:55:58;;;;;;;3.97;2.57;;;;;;;19.26;47.68;97351.75;4950554;28;20205;-91
2022/12/25 11:58:45;;;;;;;3.43;2.77;;;;;;;18.75;47.26;97263.31;4938264;28;20268;-91
2022/12/25 12:01:35;;;;;;;3.50;2.47;;;;;;;20.07;47.36;97471.94;4946831;28;20209;-91
2022/12/25 12:04:16;;;;;;;5.70;2.83;;;;;;;20.00;47.42;97459.78;4956136;28;20244;-92
2022/12/25 12:07:00;;;;;;;4.60;3.13;;;;;;;19.22;47.45;97330.41;4956145;28;20181;-93
2022/12/25 12:09:45;;;;;;;3.17;2.87;;;;;;;20.07;47.48;97468.53;4955050;28;20208;-92
2022/12/25 12:12:52;;;;;;;3.37;2.80;;;;;;;20.07;47.30;97468.53;4953540;28;20216;-91
2022/12/25 12:15:39;;;;;;;2.87;2.50;;;;;;;20.06;47.35;97462.56;4960038;28;20251;-90
2022/12/25 12:18:19;;;;;;;3.03;2.60;;;;;;;20.06;47.41;97469.34;4944819;28;20239;-90
2022/12/25 12:21:19;;;;;;;4.13;2.83;;;;;;;19.72;47.26;97427.38;4952503;28;20260;-90
2022/12/25 12:24:00;;;;;;;5.37;2.80;;;;;;;19.96;47.39;97463.91;4948267;28;20185;-91
2022/12/25 12:26:28;;;;;;;3.07;2.80;;;;;;;20.06;47.59;97461.69;4945703;28;20204;-90
2022/12/25 12:28:57;;;;;;;2.80;2.60;;;;;;;19.95;47.23;97443.47;4956343;28;20217;-91
2022/12/25 12:31:23;;;;;;;2.37;2.17;;;;;;;19.71;47.24;97392.50;4957745;28;20264;-89
2022/12/25 12:33:57;;;;;;;4.40;2.60;;;;;;;18.80;47.40;97231.28;4936754;28;20249;-91
2022/12/25 12:36:25;;;;;;;3.77;2.60;;;;;;;19.67;47.63;97375.38;4957256;28;20217;-89
2022/12/25 12:39:01;;;;;;;2.60;2.40;;;;;;;19.76;47.28;97392.66;4944873;28;20216;-90
2022/12/25 12:41:48;;;;;;;2.10;2.00;;;;;;;19.25;47.39;97283.81;4943881;28;20217;-90
2022/12/25 12:44:15;;;;;;;2.77;2.57;;;;;;;20.06;47.62;97410.66;4960418;28;20197;-91
2022/12/25 12:46:55;;;;;;;2.30;2.10;;;;;;;19.53;47.39;97322.16;4921090;28;20277;-91
2022/12/25 12:49:24;;;;;;;4.13;2.00;;;;;;;19.53;47.16;97317.06;4944212;28;20221;-90
2022/12/25 12:52:02;;;;;;;2.40;2.20;;;;;;;19.19;47.33;97286.13;4960284;28;20196;-91
2022/12/25 12:54:29;;;;;;;5.33;2.33;;;;;;;19.53;47.38;97328.16;4956197;28;20224;-90
2022/12/25 12:57:06;;;;;;;3.23;2.40;;;;;;;19.58;47.38;97343.59;4937893;28;20201;-92
2022/12/25 12:59:42;;;;;;;2.53;2.33;;;;;;;19.36;47.39;97297.81;4942850;28;20236;-92
2022/12/25 13:02:30;;;;;;;3.13;2.03;;;;;;;20.06;47.44;97416.63;4954770;28;20252;-90
2022/12/25 13:04:59;;;;;;;2.60;2.40;;;;;;;20.07;47.14;97412.41;4960963;28;20243;-92
2022/12/25 13:07:42;;;;;;;2.57;2.10;;;;;;;19.41;47.43;97301.38;4957153;28;20799;-90
2022/12/25 13:10:17;;;;;;;2.13;1.93;;;;;;;19.60;47.33;97332.63;4926861;28;20217;-92
2022/12/25 13:12:44;;;;;;;2.37;2.20;;;;;;;18.77;47.35;97200.63;4954203;28;20214;-91
2022/12/25 13:15:11;;;;;;;2.53;2.00;;;;;;;18.89;47.06;97212.06;4953589;28;20188;-91
2022/12/25 13:17:44;;;;;;;2.60;1.90;;;;;;;19.64;47.48;97326.84;4941000;28;20191;-90
2022/12/25 13:20:17;;;;;;;2.20;2.00;;;;;;;19.76;46.99;97365.50;4949787;28;20217;-93
2022/12/25 13:22:43;;;;;;;2.30;2.10;;;;;;;19.54;47.39;97317.13;4937795;28;20198;-92
2022/12/25 13:25:21;;;;;;;2.17;1.97;;;;;;;19.75;47.21;97355.22;4949339;28;20208;-92
2022/12/25 13:27:55;;;;;;;2.00;1.70;;;;;;;19.61;47.21;97315.66;4940903;28;20219;-89
2022/12/25 13:30:22;;;;;;;2.00;1.90;;;;;;;19.88;47.32;97358.25;4928166;28;20212;-91
2022/12/25 13:32:49;;;;;;;2.33;2.10;;;;;;;19.83;47.44;97352.13;4956266;28;20208;-90
2022/12/25 13:35:16;;;;;;;2.20;2.00;;;;;;;19.60;47.28;97311.38;4960207;28;20209;-91
2022/12/25 13:37:42;;;;;;;2.03;1.70;;;;;;;19.43;47.42;97269.16;4941130;28;20190;-91
2022/12/25 13:40:27;;;;;;;2.10;1.87;;;;;;;19.34;47.34;97248.47;4942295;28;20206;-90
2022/12/25 13:42:58;;;;;;;2.30;2.10;;;;;;;19.66;47.24;97297.13;4947323;28;20233;-90